Terminal Aerodrome Forecast
Issued by NWS Blacksburg, VA

Home | Current Version | Previous Version | Text Only | Print | Product List | Glossary On
Versions: 1 2 3 4 5 6 7 8 9 10 11 12
000
FTUS41 KRNK 261725
TAFDAN
TAF
KDAN 261725Z 2618/2718 22006KT P6SM BKN110 BKN250
     FM262100 22007KT P6SM VCSH BKN060
     FM270200 00000KT P6SM SCT070 BKN110
     FM271400 22005KT P6SM SKC=

USA.gov is the U.S. government's official web portal to all federal, state and local government web resources and services.